createdAt,value
2022-09-17T00:01:50.046Z,19.68
2022-09-17T00:03:56.530Z,19.69
2022-09-17T00:06:09.242Z,19.65
2022-09-17T00:08:13.944Z,19.68
2022-09-17T00:10:15.691Z,19.70
2022-09-17T00:12:17.576Z,19.68
2022-09-17T00:14:19.213Z,19.69
2022-09-17T00:16:23.800Z,19.71
2022-09-17T00:18:25.483Z,19.73
2022-09-17T00:20:27.629Z,19.74
2022-09-17T00:22:29.331Z,19.75
2022-09-17T00:24:30.906Z,19.74
2022-09-17T00:26:33.836Z,19.75
2022-09-17T00:28:35.622Z,19.71
2022-09-17T00:30:45.836Z,19.47
2022-09-17T00:32:47.450Z,19.33
2022-09-17T00:34:52.175Z,19.26
2022-09-17T00:36:53.746Z,19.28
2022-09-17T00:38:59.767Z,19.33
2022-09-17T00:41:03.162Z,19.39
2022-09-17T00:43:05.603Z,19.37
2022-09-17T00:45:07.684Z,19.37
2022-09-17T00:47:15.303Z,19.31
2022-09-17T00:49:17.650Z,19.30
2022-09-17T00:51:23.274Z,19.30
2022-09-17T00:53:24.841Z,19.30
2022-09-17T00:55:34.145Z,19.01
2022-09-17T00:57:35.854Z,18.59
2022-09-17T00:59:37.588Z,18.10
2022-09-17T01:01:39.273Z,18.06
2022-09-17T01:03:41.573Z,18.17
2022-09-17T01:05:50.362Z,18.26
2022-09-17T01:08:08.091Z,18.45
2022-09-17T01:10:35.818Z,18.64
2022-09-17T01:12:56.338Z,18.71
2022-09-17T01:15:16.751Z,18.61
2022-09-17T01:17:18.386Z,18.65
2022-09-17T01:19:30.045Z,18.69
2022-09-17T01:21:38.344Z,18.64
2022-09-17T01:23:45.976Z,18.67
2022-09-17T01:25:56.738Z,18.50
2022-09-17T01:28:16.813Z,18.56
2022-09-17T01:30:31.293Z,18.19
2022-09-17T01:32:46.902Z,18.27
2022-09-17T01:34:54.720Z,18.28
2022-09-17T01:37:04.575Z,18.42
2022-09-17T01:39:12.919Z,18.54
2022-09-17T01:41:31.012Z,18.68
2022-09-17T01:43:39.178Z,18.80
2022-09-17T01:45:51.211Z,18.90
2022-09-17T01:47:57.108Z,18.94
2022-09-17T01:50:03.671Z,19.00
2022-09-17T01:52:07.564Z,18.92
2022-09-17T01:54:21.627Z,18.48
2022-09-17T01:56:26.609Z,18.12
2022-09-17T01:58:32.043Z,17.68
2022-09-17T02:00:34.046Z,17.69
2022-09-17T02:02:53.917Z,17.74
2022-09-17T02:05:07.138Z,17.89
2022-09-17T02:07:15.382Z,18.04
2022-09-17T02:09:34.058Z,18.23
2022-09-17T02:11:37.649Z,18.30
2022-09-17T02:13:43.183Z,18.39
2022-09-17T02:15:49.945Z,18.47
2022-09-17T02:18:20.350Z,18.54
2022-09-17T02:20:28.389Z,18.53
2022-09-17T02:22:56.964Z,18.54
2022-09-17T02:25:07.583Z,18.55
2022-09-17T02:27:17.727Z,18.53
2022-09-17T02:29:39.724Z,18.54
2022-09-17T02:31:42.034Z,18.55
2022-09-17T02:33:46.675Z,18.58
2022-09-17T02:35:48.291Z,18.13
2022-09-17T02:37:50.198Z,17.68
2022-09-17T02:39:51.794Z,17.58
2022-09-17T02:42:24.444Z,17.61
2022-09-17T02:44:43.047Z,17.07
2022-09-17T02:47:16.891Z,16.79
2022-09-17T02:49:37.810Z,16.92
2022-09-17T02:51:47.629Z,17.14
2022-09-17T02:53:59.482Z,17.19
2022-09-17T02:56:13.710Z,17.34
2022-09-17T02:58:21.644Z,17.54
2022-09-17T03:00:24.204Z,17.72
2022-09-17T03:02:31.366Z,17.86
2022-09-17T03:04:34.211Z,17.96
2022-09-17T03:06:35.960Z,18.01
2022-09-17T03:08:41.274Z,17.95
2022-09-17T03:10:43.258Z,17.88
2022-09-17T03:12:44.838Z,17.91
2022-09-17T03:14:46.584Z,17.94
2022-09-17T03:16:48.288Z,17.97
2022-09-17T03:18:49.980Z,17.57
2022-09-17T03:20:51.664Z,17.65
2022-09-17T03:22:53.264Z,17.80
2022-09-17T03:24:54.840Z,17.96
2022-09-17T03:26:56.478Z,18.11
2022-09-17T03:28:58.739Z,18.25
2022-09-17T03:31:00.536Z,18.38
2022-09-17T03:33:02.220Z,18.45
2022-09-17T03:35:04.039Z,18.50
2022-09-17T03:37:05.734Z,18.54
2022-09-17T03:39:07.611Z,18.58
2022-09-17T03:41:09.207Z,18.56
2022-09-17T03:43:11.159Z,18.51
2022-09-17T03:45:13.076Z,18.47
2022-09-17T03:47:17.021Z,18.46
2022-09-17T03:49:18.750Z,18.46
2022-09-17T03:51:20.455Z,18.47
2022-09-17T03:53:22.036Z,18.44
2022-09-17T03:55:23.616Z,18.46
2022-09-17T03:57:25.555Z,18.52
2022-09-17T03:59:27.469Z,18.52
2022-09-17T04:01:29.420Z,18.54
2022-09-17T04:03:31.465Z,18.51
2022-09-17T04:05:33.379Z,18.51
2022-09-17T04:07:34.973Z,18.56
2022-09-17T04:09:36.835Z,18.59
2022-09-17T04:11:38.512Z,18.56
2022-09-17T04:13:40.135Z,18.62
2022-09-17T04:15:42.419Z,18.41
2022-09-17T04:17:44.236Z,18.39
2022-09-17T04:19:45.784Z,18.35
2022-09-17T04:21:47.536Z,17.95
2022-09-17T04:23:49.111Z,17.47
2022-09-17T04:25:50.767Z,17.10
2022-09-17T04:27:52.824Z,17.13
2022-09-17T04:29:54.468Z,17.30
2022-09-17T04:31:56.039Z,17.43
2022-09-17T04:33:57.743Z,17.63
2022-09-17T04:35:59.358Z,17.83
2022-09-17T04:38:01.214Z,17.95
2022-09-17T04:40:07.547Z,18.07
2022-09-17T04:42:09.608Z,18.20
2022-09-17T04:44:11.257Z,18.28
2022-09-17T04:46:14.493Z,18.35
2022-09-17T04:48:16.687Z,18.44
2022-09-17T04:50:19.420Z,18.51
2022-09-17T04:52:21.057Z,18.56
2022-09-17T04:54:22.799Z,18.59
2022-09-17T04:56:24.466Z,18.55
2022-09-17T04:58:26.214Z,18.59
2022-09-17T05:00:27.824Z,18.61
2022-09-17T05:02:29.683Z,18.58
2022-09-17T05:04:31.419Z,18.61
2022-09-17T05:06:33.211Z,18.71
2022-09-17T05:08:34.814Z,18.80
2022-09-17T05:10:36.507Z,18.84
2022-09-17T05:12:38.151Z,18.87
2022-09-17T05:14:39.748Z,18.81
2022-09-17T05:16:41.474Z,18.86
2022-09-17T05:18:43.190Z,18.87
2022-09-17T05:20:44.790Z,18.91
2022-09-17T05:22:49.129Z,18.96
2022-09-17T05:24:50.777Z,19.01
2022-09-17T05:26:52.351Z,19.02
2022-09-17T05:28:53.907Z,19.10
2022-09-17T05:30:58.733Z,19.16
2022-09-17T05:33:02.186Z,19.18
2022-09-17T05:35:06.130Z,19.27
2022-09-17T05:37:10.869Z,19.32
2022-09-17T05:39:12.484Z,19.42
2022-09-17T05:41:14.321Z,19.50
2022-09-17T05:43:16.197Z,19.53
2022-09-17T05:45:17.774Z,19.59
2022-09-17T05:47:19.544Z,19.65
2022-09-17T05:49:21.248Z,19.71
2022-09-17T05:51:22.942Z,19.79
2022-09-17T05:53:24.617Z,19.82
2022-09-17T05:55:26.745Z,19.80
2022-09-17T05:57:29.927Z,19.81
2022-09-17T05:59:31.794Z,19.87
2022-09-17T06:01:33.518Z,19.93
2022-09-17T06:03:35.144Z,20.00
2022-09-17T06:05:36.785Z,20.04
2022-09-17T06:07:39.346Z,20.12
2022-09-17T06:09:41.167Z,20.12
2022-09-17T06:11:42.821Z,20.09
2022-09-17T06:13:44.661Z,20.08
2022-09-17T06:15:51.257Z,19.59
2022-09-17T06:17:53.122Z,19.15
2022-09-17T06:19:54.750Z,18.86
2022-09-17T06:21:56.457Z,18.72
2022-09-17T06:23:58.013Z,18.80
2022-09-17T06:26:00.349Z,18.68
2022-09-17T06:28:03.431Z,18.50
2022-09-17T06:30:05.989Z,18.39
2022-09-17T06:32:11.055Z,18.25
2022-09-17T06:34:12.765Z,18.41
2022-09-17T06:36:14.873Z,18.51
2022-09-17T06:38:16.508Z,18.65
2022-09-17T06:40:18.151Z,18.65
2022-09-17T06:42:19.760Z,18.78
2022-09-17T06:44:21.322Z,18.86
2022-09-17T06:46:23.046Z,18.78
2022-09-17T06:48:26.900Z,18.78
2022-09-17T06:50:28.534Z,18.85
2022-09-17T06:52:30.189Z,18.96
2022-09-17T06:54:32.283Z,19.08
2022-09-17T06:56:34.424Z,19.21
2022-09-17T06:58:41.968Z,19.33
2022-09-17T07:00:43.607Z,19.44
2022-09-17T07:02:56.106Z,19.55
2022-09-17T07:04:57.867Z,19.63
2022-09-17T07:06:59.499Z,19.69
2022-09-17T07:09:01.367Z,19.40
2022-09-17T07:11:03.103Z,19.41
2022-09-17T07:13:04.677Z,19.56
2022-09-17T07:15:06.641Z,19.76
2022-09-17T07:17:08.335Z,19.96
2022-09-17T07:19:11.152Z,19.81
2022-09-17T07:21:12.845Z,19.79
2022-09-17T07:23:14.464Z,20.00
2022-09-17T07:25:16.464Z,20.18
2022-09-17T07:27:18.029Z,20.25
2022-09-17T07:29:20.742Z,20.34
2022-09-17T07:31:23.504Z,20.52
2022-09-17T07:33:27.775Z,20.73
2022-09-17T07:35:29.475Z,20.60
2022-09-17T07:37:31.326Z,20.59
2022-09-17T07:39:32.893Z,20.61
2022-09-17T07:41:34.830Z,20.72
2022-09-17T07:43:36.600Z,20.84
2022-09-17T07:45:38.173Z,21.10
2022-09-17T07:47:41.423Z,21.31
2022-09-17T07:49:43.109Z,21.53
2022-09-17T07:51:44.640Z,21.61
2022-09-17T07:53:47.792Z,21.57
2022-09-17T07:55:52.958Z,21.62
2022-09-17T07:57:54.517Z,21.29
2022-09-17T07:59:56.091Z,21.13
2022-09-17T08:01:57.952Z,20.92
2022-09-17T08:04:00.279Z,20.99
2022-09-17T08:06:06.734Z,20.99
2022-09-17T08:08:08.592Z,21.14
2022-09-17T08:10:10.271Z,21.33
2022-09-17T08:12:11.885Z,21.48
2022-09-17T08:14:15.374Z,21.51
2022-09-17T08:16:17.350Z,21.12
2022-09-17T08:18:18.971Z,21.23
2022-09-17T08:20:21.159Z,21.43
2022-09-17T08:22:22.873Z,21.64
2022-09-17T08:24:24.659Z,21.90
2022-09-17T08:26:26.851Z,22.13
2022-09-17T08:28:30.322Z,22.40
2022-09-17T08:30:32.447Z,22.26
2022-09-17T08:32:34.012Z,22.15
2022-09-17T08:34:36.819Z,22.14
2022-09-17T08:36:38.485Z,21.84
2022-09-17T08:38:40.788Z,21.86
2022-09-17T08:40:58.430Z,21.83
2022-09-17T08:43:02.467Z,21.94
2022-09-17T08:45:06.072Z,22.13
2022-09-17T08:47:36.829Z,22.31
2022-09-17T08:49:48.992Z,22.50
2022-09-17T08:52:19.143Z,22.48
2022-09-17T08:54:24.102Z,22.42
2022-09-17T08:56:26.785Z,22.46
2022-09-17T08:58:46.650Z,22.48
2022-09-17T09:00:55.992Z,22.11
2022-09-17T09:03:31.751Z,22.04
2022-09-17T09:05:48.213Z,22.05
2022-09-17T09:07:52.799Z,22.06
2022-09-17T09:10:11.548Z,22.05
2022-09-17T09:12:20.563Z,21.89
2022-09-17T09:14:28.981Z,21.84
2022-09-17T09:16:33.522Z,21.82
2022-09-17T09:18:37.966Z,21.83
2022-09-17T09:20:55.584Z,21.82
2022-09-17T09:22:58.331Z,21.82
2022-09-17T09:25:27.376Z,21.78
2022-09-17T09:27:33.494Z,21.77
2022-09-17T09:29:47.800Z,21.77
2022-09-17T09:32:16.371Z,21.74
2022-09-17T09:34:18.958Z,21.67
2022-09-17T09:36:22.176Z,21.58
2022-09-17T09:38:30.816Z,21.53
2022-09-17T09:40:55.486Z,21.48
2022-09-17T09:43:01.220Z,21.48
2022-09-17T09:45:12.869Z,21.51
2022-09-17T09:47:29.862Z,21.41
2022-09-17T09:50:09.431Z,21.31
2022-09-17T09:52:24.204Z,21.12
2022-09-17T09:54:59.626Z,21.09
2022-09-17T09:57:07.458Z,20.71
2022-09-17T09:59:12.006Z,20.63
2022-09-17T10:01:22.279Z,20.44
2022-09-17T10:03:28.194Z,20.22
2022-09-17T10:05:30.461Z,20.14
2022-09-17T10:07:32.436Z,20.18
2022-09-17T10:09:36.936Z,20.23
2022-09-17T10:11:39.559Z,20.15
2022-09-17T10:13:41.526Z,20.18
2022-09-17T10:15:43.440Z,20.20
2022-09-17T10:17:45.058Z,20.23
2022-09-17T10:20:10.571Z,20.28
2022-09-17T10:22:25.158Z,20.31
2022-09-17T10:24:31.097Z,20.32
2022-09-17T10:26:35.989Z,20.35
2022-09-17T10:28:49.032Z,20.39
2022-09-17T10:31:06.424Z,20.37
2022-09-17T10:33:20.260Z,20.38
2022-09-17T10:35:22.149Z,20.34
2022-09-17T10:37:43.629Z,20.15
2022-09-17T10:39:48.697Z,20.08
2022-09-17T10:42:11.809Z,19.97
2022-09-17T10:44:18.006Z,19.78
2022-09-17T10:46:29.082Z,19.58
2022-09-17T10:48:40.398Z,19.73
2022-09-17T10:50:41.982Z,19.90
2022-09-17T10:52:49.320Z,20.02
2022-09-17T10:55:12.288Z,19.91
2022-09-17T10:57:24.561Z,19.49
2022-09-17T10:59:41.497Z,19.59
2022-09-17T11:02:05.261Z,19.47
2022-09-17T11:04:16.333Z,19.36
2022-09-17T11:06:27.559Z,18.73
2022-09-17T11:09:02.984Z,18.49
2022-09-17T11:11:12.569Z,18.62
2022-09-17T11:13:38.744Z,18.81
2022-09-17T11:16:15.224Z,18.63
2022-09-17T11:18:25.749Z,18.60
2022-09-17T11:20:30.409Z,18.72
2022-09-17T11:22:58.143Z,18.77
2022-09-17T11:25:23.795Z,18.56
2022-09-17T11:28:07.776Z,18.90
2022-09-17T11:30:22.154Z,19.22
2022-09-17T11:32:46.116Z,19.28
2022-09-17T11:35:02.879Z,19.18
2022-09-17T11:37:23.064Z,19.21
2022-09-17T11:39:33.098Z,19.20
2022-09-17T11:41:38.582Z,19.29
2022-09-17T11:43:58.647Z,19.15
2022-09-17T11:46:08.985Z,19.23
2022-09-17T11:48:13.982Z,19.24
2022-09-17T11:50:40.509Z,19.22
2022-09-17T11:52:45.414Z,19.17
2022-09-17T11:54:50.039Z,19.35
2022-09-17T11:56:54.207Z,19.56
2022-09-17T11:59:03.716Z,19.77
2022-09-17T12:01:10.221Z,19.97
2022-09-17T12:03:43.055Z,20.13
2022-09-17T12:05:57.328Z,20.22
2022-09-17T12:08:16.308Z,20.32
2022-09-17T12:10:34.231Z,20.33
2022-09-17T12:12:49.528Z,20.35
2022-09-17T12:14:54.764Z,20.42
2022-09-17T12:17:01.173Z,20.44
2022-09-17T12:19:14.741Z,20.40
2022-09-17T12:21:21.501Z,20.43
2022-09-17T12:23:38.725Z,20.46
2022-09-17T12:26:24.740Z,20.39
2022-09-17T12:28:35.256Z,20.27
2022-09-17T12:30:42.270Z,20.13
2022-09-17T12:32:48.117Z,20.07
2022-09-17T12:35:02.263Z,20.11
2022-09-17T12:37:11.443Z,20.07
2022-09-17T12:39:33.906Z,20.18
2022-09-17T12:41:35.473Z,20.40
2022-09-17T12:43:49.502Z,20.42
2022-09-17T12:45:57.172Z,20.45
2022-09-17T12:48:06.491Z,20.25
2022-09-17T12:50:26.473Z,20.21
2022-09-17T12:52:54.074Z,20.12
2022-09-17T12:55:12.205Z,20.17
2022-09-17T12:57:41.720Z,20.15
2022-09-17T12:59:51.116Z,20.23
2022-09-17T13:02:00.576Z,20.27
2022-09-17T13:04:56.753Z,20.31
2022-09-17T13:07:18.261Z,20.35
2022-09-17T13:09:41.193Z,20.34
2022-09-17T13:12:18.163Z,20.35
2022-09-17T13:14:24.426Z,20.46
2022-09-17T13:16:40.921Z,20.36
2022-09-17T13:19:22.808Z,20.35
2022-09-17T13:21:30.758Z,20.27
2022-09-17T13:23:41.900Z,20.38
2022-09-17T13:25:52.729Z,20.44
2022-09-17T13:28:07.407Z,20.47
2022-09-17T13:30:11.176Z,20.48
2022-09-17T13:32:34.789Z,20.49
2022-09-17T13:34:36.525Z,20.43
2022-09-17T13:36:39.389Z,20.37
2022-09-17T13:38:42.117Z,20.43
2022-09-17T13:40:44.220Z,20.46
2022-09-17T13:42:49.136Z,20.54
2022-09-17T13:45:01.909Z,20.61
2022-09-17T13:47:37.232Z,20.55
2022-09-17T13:49:46.131Z,20.55
2022-09-17T13:51:49.230Z,20.53
2022-09-17T13:53:55.068Z,20.47
2022-09-17T13:56:02.034Z,20.45
2022-09-17T13:58:07.317Z,20.50
2022-09-17T14:00:47.759Z,20.47
2022-09-17T14:02:49.470Z,20.01
2022-09-17T14:04:54.667Z,19.97
2022-09-17T14:06:57.900Z,19.77
2022-09-17T14:08:59.575Z,19.58
2022-09-17T14:11:02.792Z,19.49
2022-09-17T14:13:28.204Z,19.46
2022-09-17T14:15:41.651Z,19.57
2022-09-17T14:17:53.347Z,19.67
2022-09-17T14:19:55.489Z,19.60
2022-09-17T14:22:06.090Z,19.56
2022-09-17T14:24:24.857Z,19.10
2022-09-17T14:26:36.177Z,18.88
2022-09-17T14:29:02.461Z,19.05
2022-09-17T14:31:10.023Z,19.22
2022-09-17T14:33:18.285Z,19.40
2022-09-17T14:35:38.686Z,19.58
2022-09-17T14:37:42.660Z,19.63
2022-09-17T14:39:44.767Z,19.50
2022-09-17T14:41:46.525Z,19.50
2022-09-17T14:43:59.153Z,19.40
2022-09-17T14:46:01.793Z,19.29
2022-09-17T14:48:29.727Z,19.35
2022-09-17T14:50:31.587Z,19.42
2022-09-17T14:52:33.399Z,19.45
2022-09-17T14:54:36.590Z,19.52
2022-09-17T14:56:46.681Z,19.41
2022-09-17T14:58:52.202Z,19.24
2022-09-17T15:00:53.812Z,19.08
2022-09-17T15:02:59.474Z,19.11
2022-09-17T15:05:02.833Z,19.09
2022-09-17T15:07:13.339Z,19.12
2022-09-17T15:09:22.455Z,19.18
2022-09-17T15:11:24.151Z,19.21
2022-09-17T15:13:30.748Z,19.27
2022-09-17T15:15:32.729Z,19.33
2022-09-17T15:17:35.273Z,19.24
2022-09-17T15:19:41.715Z,19.28
2022-09-17T15:21:45.119Z,19.35
2022-09-17T15:23:48.911Z,19.03
2022-09-17T15:25:52.779Z,18.95
2022-09-17T15:27:56.518Z,18.99
2022-09-17T15:30:20.359Z,19.08
2022-09-17T15:32:22.186Z,19.17
2022-09-17T15:34:23.985Z,19.27
2022-09-17T15:36:27.682Z,19.37
2022-09-17T15:38:29.806Z,19.46
2022-09-17T15:40:38.412Z,19.52
2022-09-17T15:42:40.205Z,19.56
2022-09-17T15:44:41.834Z,19.60
2022-09-17T15:46:43.676Z,19.64
2022-09-17T15:48:45.473Z,19.66
2022-09-17T15:50:52.329Z,19.67
2022-09-17T15:53:08.926Z,19.68
2022-09-17T15:55:35.704Z,19.71
2022-09-17T15:57:37.397Z,19.69
2022-09-17T15:59:38.993Z,19.59
2022-09-17T16:01:43.707Z,19.62
2022-09-17T16:03:45.374Z,19.68
2022-09-17T16:05:47.312Z,19.72
2022-09-17T16:07:49.010Z,19.73
2022-09-17T16:09:52.176Z,19.74
2022-09-17T16:11:54.380Z,19.72
2022-09-17T16:13:57.422Z,19.72
2022-09-17T16:15:59.171Z,19.67
2022-09-17T16:18:00.822Z,19.54
2022-09-17T16:20:23.759Z,19.53
2022-09-17T16:22:26.403Z,19.56
2022-09-17T16:24:27.973Z,19.60
2022-09-17T16:26:31.472Z,19.55
2022-09-17T16:28:33.749Z,19.33
2022-09-17T16:30:35.423Z,19.36
2022-09-17T16:32:37.104Z,19.43
2022-09-17T16:34:38.709Z,19.48
2022-09-17T16:36:40.317Z,19.37
2022-09-17T16:38:42.136Z,19.28
2022-09-17T16:40:46.744Z,19.23
2022-09-17T16:42:48.801Z,19.22
2022-09-17T16:44:50.430Z,19.28
2022-09-17T16:46:52.060Z,19.34
2022-09-17T16:48:53.714Z,19.41
2022-09-17T16:50:55.463Z,19.47
2022-09-17T16:53:00.411Z,19.44
2022-09-17T16:55:05.148Z,19.49
2022-09-17T16:57:06.820Z,19.52
2022-09-17T16:59:08.488Z,19.59
2022-09-17T17:01:13.161Z,19.60
2022-09-17T17:03:16.764Z,19.60
2022-09-17T17:05:18.873Z,19.56
2022-09-17T17:07:20.946Z,19.51
2022-09-17T17:09:22.632Z,19.19
2022-09-17T17:11:24.217Z,19.15
2022-09-17T17:13:27.689Z,19.18
2022-09-17T17:15:30.600Z,19.05
2022-09-17T17:17:33.070Z,18.70
2022-09-17T17:19:35.323Z,18.57
2022-09-17T17:21:37.109Z,18.44
2022-09-17T17:23:38.715Z,18.27
2022-09-17T17:25:40.550Z,18.35
2022-09-17T17:27:42.287Z,18.37
2022-09-17T17:29:44.025Z,18.33
2022-09-17T17:31:45.888Z,18.36
2022-09-17T17:33:47.620Z,18.37
2022-09-17T17:35:49.371Z,18.49
2022-09-17T17:37:51.110Z,18.62
2022-09-17T17:39:53.993Z,18.77
2022-09-17T17:41:56.347Z,18.86
2022-09-17T17:43:58.277Z,18.93
2022-09-17T17:46:00.101Z,18.76
2022-09-17T17:48:02.097Z,18.83
2022-09-17T17:50:04.136Z,18.84
2022-09-17T17:52:05.881Z,18.79
2022-09-17T17:54:08.302Z,18.57
2022-09-17T17:56:11.189Z,18.57
2022-09-17T17:58:12.753Z,18.65
2022-09-17T18:00:16.634Z,18.73
2022-09-17T18:02:18.425Z,18.76
2022-09-17T18:04:20.143Z,18.86
2022-09-17T18:06:21.686Z,18.90
2022-09-17T18:08:24.291Z,18.87
2022-09-17T18:10:25.975Z,18.75
2022-09-17T18:12:27.591Z,18.79
2022-09-17T18:14:29.227Z,18.69
2022-09-17T18:16:30.916Z,18.79
2022-09-17T18:18:35.324Z,18.86
2022-09-17T18:20:37.265Z,18.88
2022-09-17T18:22:38.881Z,18.94
2022-09-17T18:24:40.452Z,19.05
2022-09-17T18:26:42.292Z,19.14
2022-09-17T18:28:44.475Z,19.14
2022-09-17T18:30:46.201Z,19.07
2022-09-17T18:32:49.149Z,18.93
2022-09-17T18:34:53.038Z,18.82
2022-09-17T18:36:54.609Z,18.92
2022-09-17T18:39:15.549Z,19.02
2022-09-17T18:41:23.213Z,18.82
2022-09-17T18:43:24.805Z,18.80
2022-09-17T18:45:26.484Z,18.57
2022-09-17T18:47:28.204Z,18.71
2022-09-17T18:49:29.827Z,18.85
2022-09-17T18:51:31.842Z,18.95
2022-09-17T18:53:36.164Z,18.98
2022-09-17T18:55:37.718Z,19.04
2022-09-17T18:57:39.330Z,19.12
2022-09-17T18:59:40.992Z,18.96
2022-09-17T19:01:42.938Z,18.89
2022-09-17T19:03:45.070Z,18.60
2022-09-17T19:05:46.764Z,18.62
2022-09-17T19:07:48.536Z,18.73
2022-09-17T19:09:50.180Z,18.83
2022-09-17T19:11:51.728Z,18.94
2022-09-17T19:13:53.396Z,19.01
2022-09-17T19:16:01.244Z,19.09
2022-09-17T19:18:02.882Z,18.95
2022-09-17T19:20:05.124Z,18.85
2022-09-17T19:22:08.124Z,18.90
2022-09-17T19:24:09.934Z,18.99
2022-09-17T19:26:17.105Z,19.03
2022-09-17T19:28:20.381Z,19.10
2022-09-17T19:30:25.698Z,19.17
2022-09-17T19:32:28.658Z,19.18
2022-09-17T19:34:30.359Z,19.18
2022-09-17T19:36:32.273Z,19.10
2022-09-17T19:38:34.537Z,19.10
2022-09-17T19:40:36.203Z,19.11
2022-09-17T19:42:37.961Z,19.12
2022-09-17T19:44:39.847Z,19.05
2022-09-17T19:46:41.627Z,18.86
2022-09-17T19:48:54.451Z,18.82
2022-09-17T19:50:57.057Z,18.78
2022-09-17T19:52:58.765Z,18.60
2022-09-17T19:55:01.018Z,18.46
2022-09-17T19:57:02.636Z,18.29
2022-09-17T19:59:04.496Z,18.37
2022-09-17T20:01:06.202Z,18.46
2022-09-17T20:03:08.884Z,18.45
2022-09-17T20:05:10.548Z,18.19
2022-09-17T20:07:12.263Z,18.18
2022-09-17T20:09:13.809Z,18.25
2022-09-17T20:11:16.443Z,18.05
2022-09-17T20:13:18.726Z,18.07
2022-09-17T20:15:20.419Z,18.14
2022-09-17T20:17:22.079Z,18.20
2022-09-17T20:19:23.863Z,18.25
2022-09-17T20:21:31.127Z,18.30
2022-09-17T20:23:32.970Z,18.33
2022-09-17T20:25:34.946Z,18.32
2022-09-17T20:27:36.622Z,18.33
2022-09-17T20:29:38.247Z,18.34
2022-09-17T20:31:40.227Z,18.29
2022-09-17T20:33:42.156Z,18.29
2022-09-17T20:35:43.956Z,18.32
2022-09-17T20:38:33.386Z,18.33
2022-09-17T20:40:07.999Z,18.00
2022-09-17T20:42:09.719Z,17.89
2022-09-17T20:44:11.295Z,17.45
2022-09-17T20:46:13.529Z,17.42
2022-09-17T20:48:15.341Z,17.52
2022-09-17T20:50:17.004Z,17.35
2022-09-17T20:52:21.095Z,17.46
2022-09-17T20:54:23.049Z,17.30
2022-09-17T20:56:27.488Z,17.40
2022-09-17T20:58:36.507Z,17.56
2022-09-17T21:00:38.093Z,17.71
2022-09-17T21:02:41.623Z,17.67
2022-09-17T21:04:43.275Z,17.69
2022-09-17T21:06:45.735Z,17.73
2022-09-17T21:08:48.197Z,17.85
2022-09-17T21:10:49.945Z,17.88
2022-09-17T21:12:51.544Z,17.46
2022-09-17T21:14:53.204Z,17.39
2022-09-17T21:16:55.143Z,17.42
2022-09-17T21:18:58.648Z,17.47
2022-09-17T21:21:08.689Z,17.52
2022-09-17T21:23:10.331Z,17.24
2022-09-17T21:25:11.939Z,17.27
2022-09-17T21:27:13.513Z,17.42
2022-09-17T21:29:15.302Z,17.37
2022-09-17T21:31:22.349Z,17.38
2022-09-17T21:33:24.053Z,17.40
2022-09-17T21:35:29.934Z,17.19
2022-09-17T21:37:31.571Z,17.35
2022-09-17T21:39:35.616Z,17.55
2022-09-17T21:41:41.609Z,17.62
2022-09-17T21:43:44.336Z,17.69
2022-09-17T21:45:45.997Z,17.69
2022-09-17T21:47:47.815Z,17.69
2022-09-17T21:49:49.409Z,17.78
2022-09-17T21:51:51.259Z,17.83
2022-09-17T21:53:55.059Z,17.84
2022-09-17T21:56:01.474Z,17.90
2022-09-17T21:58:03.137Z,17.94
2022-09-17T22:00:06.499Z,17.90
2022-09-17T22:02:08.154Z,17.96
2022-09-17T22:04:13.238Z,17.73
2022-09-17T22:06:18.958Z,17.65
2022-09-17T22:08:20.555Z,17.61
2022-09-17T22:10:22.425Z,17.70
2022-09-17T22:12:24.008Z,17.79
2022-09-17T22:14:25.840Z,17.86
2022-09-17T22:16:30.796Z,17.91
2022-09-17T22:18:34.576Z,17.90
2022-09-17T22:20:36.024Z,17.93
2022-09-17T22:22:37.923Z,18.01
2022-09-17T22:24:43.574Z,17.98
2022-09-17T22:26:47.709Z,17.93
2022-09-17T22:28:50.289Z,17.93
2022-09-17T22:30:51.968Z,17.94
2022-09-17T22:32:53.564Z,18.08
2022-09-17T22:34:55.291Z,18.16
2022-09-17T22:36:56.913Z,18.23
2022-09-17T22:38:58.933Z,18.23
2022-09-17T22:41:17.665Z,18.17
2022-09-17T22:43:19.258Z,18.26
2022-09-17T22:45:20.818Z,18.29
2022-09-17T22:47:22.538Z,18.28
2022-09-17T22:49:24.051Z,18.21
2022-09-17T22:51:27.120Z,18.05
2022-09-17T22:53:28.928Z,17.96
2022-09-17T22:55:31.118Z,17.90
2022-09-17T22:57:32.693Z,17.98
2022-09-17T22:59:34.535Z,17.95
2022-09-17T23:01:36.695Z,17.94
2022-09-17T23:03:39.467Z,17.88
2022-09-17T23:05:41.057Z,17.97
2022-09-17T23:07:42.672Z,17.87
2022-09-17T23:09:44.396Z,17.94
2022-09-17T23:11:46.175Z,17.92
2022-09-17T23:13:48.763Z,17.98
2022-09-17T23:15:50.471Z,18.10
2022-09-17T23:17:52.239Z,18.07
2022-09-17T23:19:54.000Z,18.03
2022-09-17T23:21:55.542Z,18.08
2022-09-17T23:23:57.350Z,18.14
2022-09-17T23:26:03.510Z,18.18
2022-09-17T23:28:05.102Z,18.16
2022-09-17T23:30:07.209Z,18.20
2022-09-17T23:32:08.791Z,18.29
2022-09-17T23:34:10.695Z,18.29
2022-09-17T23:36:19.411Z,18.34
2022-09-17T23:38:20.965Z,18.36
2022-09-17T23:40:23.493Z,18.44
2022-09-17T23:42:25.496Z,18.48
2022-09-17T23:44:27.265Z,18.54
2022-09-17T23:46:31.592Z,18.54
2022-09-17T23:48:33.509Z,18.56
2022-09-17T23:50:35.228Z,18.50
2022-09-17T23:52:36.875Z,18.62
2022-09-17T23:54:38.481Z,18.75
2022-09-17T23:56:40.512Z,18.92
2022-09-17T23:58:42.202Z,19.11
